Fr8 Pride — V7NW5 — position and weather

sailwx.info

Track history (hours):
 
Tides and Currents Weather Stations Pressure Air Temp Water Temp Dewpoint Dewpoint Depression Visibility Wind Speed Wind Dir Waves Ship Positions

Fr8 Pride

Last reported at 2017-Oct-24 20:25 UTC. Time now 2017-Nov-21 17:26 UTC.
Position N 36°19' E 014°41'.
Warning: this ship's position is 27 days out of date.

Length 229 m; draft 13.1 m.

Type: Ship. MMSI: 538003031.

Date/timePositionNaut miles runAvg speedWind from/ knotsBaromVisibWave heightAir tempDewpointWater temp
2017-Oct-24 20:25N 36°19' E 014°41'512.7
2017-Oct-24 20:00N 36°21' E 014°35'612.7
2017-Oct-24 19:30N 36°22' E 014°27'612.6
2017-Oct-24 19:00N 36°24' E 014°20'612.7
2017-Oct-24 18:30N 36°26' E 014°12'712.9
2017-Oct-24 17:59N 36°28' E 014°04'612.0
2017-Oct-24 17:30N 36°29' E 013°57'1 1.8
2017-Oct-24 16:48N 36°30' E 013°56'2 8.2
2017-Oct-24 16:30N 36°30' E 013°53'  
2017-Oct-22 05:28N 36°29' W 000°40'22412.8
2017-Oct-21 12:03N 35°60' W 005°15'114.8
2017-Oct-21 12:00N 35°60' W 005°16'714.6
2017-Oct-21 11:30N 35°58' W 005°24'16512.3
2017-Oct-20 22:10N 36°23' W 008°46'812.7
2017-Oct-20 21:35N 36°25' W 008°55'112.5
2017-Oct-20 21:29N 36°25' W 008°56'612.9
2017-Oct-20 21:00N 36°27' W 009°04'11711.8
2017-Oct-20 11:02N 38°14' W 010°04'812.5
2017-Oct-20 10:22N 38°22' W 010°06'712.3
2017-Oct-20 09:48N 38°29' W 010°08'1012.3
2017-Oct-20 09:02N 38°38' W 010°11'011.9
2017-Oct-20 09:00N 38°39' W 010°11'611.7
2017-Oct-20 08:30N 38°44' W 010°11'612.1
2017-Oct-20 08:00N 38°50' W 010°11'612.8
2017-Oct-20 07:30N 38°57' W 010°12'713.4
2017-Oct-20 07:01N 39°03' W 010°12'613.0
2017-Oct-20 06:31N 39°10' W 010°12'60911.9
2017-Oct-18 03:12N 48°49' W 005°51'311.3
2017-Oct-18 02:56N 48°52' W 005°49'1610.9
2017-Oct-18 01:27N 49°01' W 005°28'9012.7
2017-Oct-17 18:24N 49°46' W 003°30'411.0
2017-Oct-17 18:00N 49°48' W 003°24'510.8
2017-Oct-17 17:31N 49°51' W 003°17'610.6
2017-Oct-17 16:58N 49°54' W 003°10'510.6
2017-Oct-17 16:31N 49°57' W 003°03'510.7
2017-Oct-17 16:01N 49°58' W 002°55'611.1
2017-Oct-17 15:30N 49°60' W 002°47'1412.2
2017-Oct-17 14:20N 50°04' W 002°26'413.4
2017-Oct-17 14:01N 50°06' W 002°19'1014.3
2017-Oct-17 13:20N 50°08' W 002°05'515.1
2017-Oct-17 13:00N 50°09' W 001°57'6113.7
2017-Oct-17 08:33N 50°25' W 000°25'111.0
2017-Oct-17 08:28N 50°26' W 000°24'510.7
2017-Oct-17 08:00N 50°27' W 000°16'510.2
2017-Oct-17 07:30N 50°28' W 000°09'5 9.7
2017-Oct-17 07:00N 50°29' W 000°01'5 9.6
2017-Oct-17 06:30N 50°31' E 000°06'5 9.5
2017-Oct-17 06:00N 50°32' E 000°13'510.0
2017-Oct-17 05:30N 50°33' E 000°21'510.7
2017-Oct-17 05:00N 50°35' E 000°29'611.4
2017-Oct-17 04:30N 50°37' E 000°37'612.0
2017-Oct-17 04:00N 50°40' E 000°45'612.2
2017-Oct-17 03:30N 50°44' E 000°52'612.0
2017-Oct-17 03:00N 50°47' E 001°01'812.4
2017-Oct-17 02:23N 50°51' E 001°11'512.2
2017-Oct-17 02:00N 50°54' E 001°17'611.9
2017-Oct-17 01:30N 50°58' E 001°23'611.3
2017-Oct-17 01:00N 51°03' E 001°29'510.1
2017-Oct-17 00:30N 51°06' E 001°35'5 9.4
2017-Oct-17 00:00N 51°09' E 001°40'5 9.4
2017-Oct-16 23:30N 51°13' E 001°45'5 9.3
2017-Oct-16 23:00N 51°17' E 001°49'5 9.4
2017-Oct-16 22:30N 51°21' E 001°52'5 9.8
2017-Oct-16 22:00N 51°26' E 001°56'510.4
2017-Oct-16 21:30N 51°30' E 002°01'510.9
2017-Oct-16 21:00N 51°34' E 002°07'611.6
2017-Oct-16 20:30N 51°38' E 002°13'612.1
2017-Oct-16 19:59N 51°42' E 002°20'612.6
2017-Oct-16 19:28N 51°47' E 002°27'713.1
2017-Oct-16 18:54N 51°53' E 002°34'713.1
2017-Oct-16 18:22N 51°58' E 002°42'2812.2
2017-Oct-16 16:05N 52°03' E 003°27'112.2
2017-Oct-16 15:58N 52°03' E 003°29'611.8
2017-Oct-16 15:30N 52°03' E 003°38'3 5.5
2017-Oct-16 15:00N 52°03' E 003°42'510.7
2017-Oct-16 14:30N 52°03' E 003°51'1010.3
2017-Oct-16 13:30N 51°58' E 004°06'4 7.9
2017-Oct-16 13:00N 51°56' E 004°11'2 2.7
2017-Oct-16 12:25N 51°55' E 004°13'0 0.0
2017-Oct-16 11:46N 51°55' E 004°13'0 0.0
2017-Oct-16 11:22N 51°55' E 004°13'0 0.0
2017-Oct-16 10:58N 51°55' E 004°13'0 0.0
2017-Oct-16 10:24N 51°55' E 004°13'0 0.0
2017-Oct-16 09:53N 51°55' E 004°13'0 0.0
2017-Oct-16 09:30N 51°55' E 004°13'0 0.0
2017-Oct-16 08:50N 51°55' E 004°13'0 0.0
2017-Oct-16 08:26N 51°55' E 004°13'0 0.0
2017-Oct-16 08:00N 51°55' E 004°13'0 0.0
2017-Oct-16 07:28N 51°55' E 004°13'0 0.0
2017-Oct-16 06:58N 51°55' E 004°13'0 0.0
2017-Oct-16 06:27N 51°55' E 004°13'0 0.0
2017-Oct-16 06:00N 51°55' E 004°13'0 0.0
2017-Oct-16 05:29N 51°55' E 004°13'0 0.0
2017-Oct-16 04:58N 51°55' E 004°13'0 0.0
2017-Oct-16 04:30N 51°55' E 004°13'0 0.0
2017-Oct-16 03:54N 51°55' E 004°13'0 0.0
2017-Oct-16 03:22N 51°55' E 004°13'0 0.0
2017-Oct-16 02:59N 51°55' E 004°13'0 0.0
2017-Oct-16 02:28N 51°55' E 004°13'0 0.0
2017-Oct-16 01:55N 51°55' E 004°13'0 0.0
2017-Oct-16 01:27N 51°55' E 004°13'0 0.0
2017-Oct-16 00:56N 51°55' E 004°13'0 0.0
2017-Oct-16 00:29N 51°55' E 004°13'0 0.0
2017-Oct-15 23:54N 51°55' E 004°13'0 0.0
2017-Oct-15 23:30N 51°55' E 004°13'0 0.0
2017-Oct-15 22:50N 51°55' E 004°13'0 0.0
2017-Oct-15 22:26N 51°55' E 004°13'0 0.0
2017-Oct-15 21:58N 51°55' E 004°13'0 0.0
2017-Oct-15 21:23N 51°55' E 004°13'0 0.0
2017-Oct-15 20:59N 51°55' E 004°13'0 0.0
2017-Oct-15 20:27N 51°55' E 004°13'0 0.0
2017-Oct-15 19:55N 51°55' E 004°13'0 0.0
2017-Oct-15 19:31N 51°55' E 004°13'0 0.0
2017-Oct-15 18:57N 51°55' E 004°13'0 0.0
2017-Oct-15 18:19N 51°55' E 004°13'0 0.0
2017-Oct-15 17:55N 51°55' E 004°13'0 0.0
2017-Oct-15 17:31N 51°55' E 004°13'0 0.0
2017-Oct-15 16:58N 51°55' E 004°13'0 0.0
2017-Oct-15 16:27N 51°55' E 004°13'0 0.0
2017-Oct-15 15:55N 51°55' E 004°13'0 0.0
2017-Oct-15 15:23N 51°55' E 004°13'0 0.0
2017-Oct-15 14:59N 51°55' E 004°13'0 0.0
2017-Oct-15 14:00N 51°55' E 004°13'0 0.0
2017-Oct-15 13:25N 51°55' E 004°13'0 0.0
2017-Oct-15 12:53N 51°55' E 004°13'0 0.0
2017-Oct-15 12:26N 51°55' E 004°13'0 0.0
2017-Oct-15 11:56N 51°55' E 004°13'0 0.0
2017-Oct-15 11:30N 51°55' E 004°13'0 0.0
2017-Oct-15 10:58N 51°55' E 004°13'0 0.0
2017-Oct-15 10:27N 51°55' E 004°13'0 0.0
2017-Oct-15 09:55N 51°55' E 004°13'0 0.0
2017-Oct-15 09:26N 51°55' E 004°13'0 0.0
2017-Oct-15 08:56N 51°55' E 004°13'0 0.0
2017-Oct-15 08:30N 51°55' E 004°13'0 0.0
2017-Oct-15 07:59N 51°55' E 004°13'0 0.0
2017-Oct-15 07:28N 51°55' E 004°13'0 0.0
2017-Oct-15 06:57N 51°55' E 004°13'0 0.0
2017-Oct-15 06:23N 51°55' E 004°13'0 0.0
2017-Oct-15 05:56N 51°55' E 004°13'0 0.0
2017-Oct-15 05:29N 51°55' E 004°13'0 0.0
2017-Oct-15 04:57N 51°55' E 004°13'0 0.0
2017-Oct-15 04:27N 51°55' E 004°13'0 0.0
2017-Oct-15 03:55N 51°55' E 004°13'0 0.0
2017-Oct-15 03:29N 51°55' E 004°13'0 0.0
2017-Oct-15 02:57N 51°55' E 004°13'0 0.0
2017-Oct-15 02:28N 51°55' E 004°13'0 0.0
2017-Oct-15 01:56N 51°55' E 004°13'0 0.0
2017-Oct-15 01:24N 51°55' E 004°13'0 0.0
2017-Oct-15 00:54N 51°55' E 004°13'0 0.0
2017-Oct-15 00:23N 51°55' E 004°13'0 0.0
2017-Oct-14 23:59N 51°55' E 004°13'0 0.0
2017-Oct-14 23:24N 51°55' E 004°13'0 0.0
2017-Oct-14 22:57N 51°55' E 004°13'0 0.0
2017-Oct-14 22:28N 51°55' E 004°13'0 0.0
2017-Oct-14 21:56N 51°55' E 004°13'0 0.0
2017-Oct-14 21:24N 51°55' E 004°13'0 0.0
2017-Oct-14 21:00N 51°55' E 004°13'  
Track history (hours):
 
Tides and Currents Weather Stations Pressure Air Temp Water Temp Dewpoint Dewpoint Depression Visibility Wind Speed Wind Dir Waves Ship Positions

Fr8 Pride

Last reported at 2017-Oct-24 20:25 UTC. Time now 2017-Nov-21 17:26 UTC.
Position N 36°19' E 014°41'.
Warning: this ship's position is 27 days out of date.

Length 229 m; draft 13.1 m.

Type: Ship. MMSI: 538003031.

Date/timePositionNaut miles runAvg speedWind from/ knotsBaromVisibWave heightAir tempDewpointWater temp
2017-Oct-24 20:25N 36°19' E 014°41'512.7
2017-Oct-24 20:00N 36°21' E 014°35'612.7
2017-Oct-24 19:30N 36°22' E 014°27'612.6
2017-Oct-24 19:00N 36°24' E 014°20'612.7
2017-Oct-24 18:30N 36°26' E 014°12'712.9
2017-Oct-24 17:59N 36°28' E 014°04'612.0
2017-Oct-24 17:30N 36°29' E 013°57'1 1.8
2017-Oct-24 16:48N 36°30' E 013°56'2 8.2
2017-Oct-24 16:30N 36°30' E 013°53'  
2017-Oct-22 05:28N 36°29' W 000°40'22412.8
2017-Oct-21 12:03N 35°60' W 005°15'114.8
2017-Oct-21 12:00N 35°60' W 005°16'714.6
2017-Oct-21 11:30N 35°58' W 005°24'16512.3
2017-Oct-20 22:10N 36°23' W 008°46'812.7
2017-Oct-20 21:35N 36°25' W 008°55'112.5
2017-Oct-20 21:29N 36°25' W 008°56'612.9
2017-Oct-20 21:00N 36°27' W 009°04'11711.8
2017-Oct-20 11:02N 38°14' W 010°04'812.5
2017-Oct-20 10:22N 38°22' W 010°06'712.3
2017-Oct-20 09:48N 38°29' W 010°08'1012.3
2017-Oct-20 09:02N 38°38' W 010°11'011.9
2017-Oct-20 09:00N 38°39' W 010°11'611.7
2017-Oct-20 08:30N 38°44' W 010°11'612.1
2017-Oct-20 08:00N 38°50' W 010°11'612.8
2017-Oct-20 07:30N 38°57' W 010°12'713.4
2017-Oct-20 07:01N 39°03' W 010°12'613.0
2017-Oct-20 06:31N 39°10' W 010°12'60911.9
2017-Oct-18 03:12N 48°49' W 005°51'311.3
2017-Oct-18 02:56N 48°52' W 005°49'1610.9
2017-Oct-18 01:27N 49°01' W 005°28'9012.7
2017-Oct-17 18:24N 49°46' W 003°30'411.0
2017-Oct-17 18:00N 49°48' W 003°24'510.8
2017-Oct-17 17:31N 49°51' W 003°17'610.6
2017-Oct-17 16:58N 49°54' W 003°10'510.6
2017-Oct-17 16:31N 49°57' W 003°03'510.7
2017-Oct-17 16:01N 49°58' W 002°55'611.1
2017-Oct-17 15:30N 49°60' W 002°47'1412.2
2017-Oct-17 14:20N 50°04' W 002°26'413.4
2017-Oct-17 14:01N 50°06' W 002°19'1014.3
2017-Oct-17 13:20N 50°08' W 002°05'515.1
2017-Oct-17 13:00N 50°09' W 001°57'6113.7
2017-Oct-17 08:33N 50°25' W 000°25'111.0
2017-Oct-17 08:28N 50°26' W 000°24'510.7
2017-Oct-17 08:00N 50°27' W 000°16'510.2
2017-Oct-17 07:30N 50°28' W 000°09'5 9.7
2017-Oct-17 07:00N 50°29' W 000°01'5 9.6
2017-Oct-17 06:30N 50°31' E 000°06'5 9.5
2017-Oct-17 06:00N 50°32' E 000°13'510.0
2017-Oct-17 05:30N 50°33' E 000°21'510.7
2017-Oct-17 05:00N 50°35' E 000°29'611.4
2017-Oct-17 04:30N 50°37' E 000°37'612.0
2017-Oct-17 04:00N 50°40' E 000°45'612.2
2017-Oct-17 03:30N 50°44' E 000°52'612.0
2017-Oct-17 03:00N 50°47' E 001°01'812.4
2017-Oct-17 02:23N 50°51' E 001°11'512.2
2017-Oct-17 02:00N 50°54' E 001°17'611.9
2017-Oct-17 01:30N 50°58' E 001°23'611.3
2017-Oct-17 01:00N 51°03' E 001°29'510.1
2017-Oct-17 00:30N 51°06' E 001°35'5 9.4
2017-Oct-17 00:00N 51°09' E 001°40'5 9.4
2017-Oct-16 23:30N 51°13' E 001°45'5 9.3
2017-Oct-16 23:00N 51°17' E 001°49'5 9.4
2017-Oct-16 22:30N 51°21' E 001°52'5 9.8
2017-Oct-16 22:00N 51°26' E 001°56'510.4
2017-Oct-16 21:30N 51°30' E 002°01'510.9
2017-Oct-16 21:00N 51°34' E 002°07'611.6
2017-Oct-16 20:30N 51°38' E 002°13'612.1
2017-Oct-16 19:59N 51°42' E 002°20'612.6
2017-Oct-16 19:28N 51°47' E 002°27'713.1
2017-Oct-16 18:54N 51°53' E 002°34'713.1
2017-Oct-16 18:22N 51°58' E 002°42'2812.2
2017-Oct-16 16:05N 52°03' E 003°27'112.2
2017-Oct-16 15:58N 52°03' E 003°29'611.8
2017-Oct-16 15:30N 52°03' E 003°38'3 5.5
2017-Oct-16 15:00N 52°03' E 003°42'510.7
2017-Oct-16 14:30N 52°03' E 003°51'1010.3
2017-Oct-16 13:30N 51°58' E 004°06'4 7.9
2017-Oct-16 13:00N 51°56' E 004°11'2 2.7
2017-Oct-16 12:25N 51°55' E 004°13'0 0.0
2017-Oct-16 11:46N 51°55' E 004°13'0 0.0
2017-Oct-16 11:22N 51°55' E 004°13'0 0.0
2017-Oct-16 10:58N 51°55' E 004°13'0 0.0
2017-Oct-16 10:24N 51°55' E 004°13'0 0.0
2017-Oct-16 09:53N 51°55' E 004°13'0 0.0
2017-Oct-16 09:30N 51°55' E 004°13'0 0.0
2017-Oct-16 08:50N 51°55' E 004°13'0 0.0
2017-Oct-16 08:26N 51°55' E 004°13'0 0.0
2017-Oct-16 08:00N 51°55' E 004°13'0 0.0
2017-Oct-16 07:28N 51°55' E 004°13'0 0.0
2017-Oct-16 06:58N 51°55' E 004°13'0 0.0
2017-Oct-16 06:27N 51°55' E 004°13'0 0.0
2017-Oct-16 06:00N 51°55' E 004°13'0 0.0
2017-Oct-16 05:29N 51°55' E 004°13'0 0.0
2017-Oct-16 04:58N 51°55' E 004°13'0 0.0
2017-Oct-16 04:30N 51°55' E 004°13'0 0.0
2017-Oct-16 03:54N 51°55' E 004°13'0 0.0
2017-Oct-16 03:22N 51°55' E 004°13'0 0.0
2017-Oct-16 02:59N 51°55' E 004°13'0 0.0
2017-Oct-16 02:28N 51°55' E 004°13'0 0.0
2017-Oct-16 01:55N 51°55' E 004°13'0 0.0
2017-Oct-16 01:27N 51°55' E 004°13'0 0.0
2017-Oct-16 00:56N 51°55' E 004°13'0 0.0
2017-Oct-16 00:29N 51°55' E 004°13'0 0.0
2017-Oct-15 23:54N 51°55' E 004°13'0 0.0
2017-Oct-15 23:30N 51°55' E 004°13'0 0.0
2017-Oct-15 22:50N 51°55' E 004°13'0 0.0
2017-Oct-15 22:26N 51°55' E 004°13'0 0.0
2017-Oct-15 21:58N 51°55' E 004°13'0 0.0
2017-Oct-15 21:23N 51°55' E 004°13'0 0.0
2017-Oct-15 20:59N 51°55' E 004°13'0 0.0
2017-Oct-15 20:27N 51°55' E 004°13'0 0.0
2017-Oct-15 19:55N 51°55' E 004°13'0 0.0
2017-Oct-15 19:31N 51°55' E 004°13'0 0.0
2017-Oct-15 18:57N 51°55' E 004°13'0 0.0
2017-Oct-15 18:19N 51°55' E 004°13'0 0.0
2017-Oct-15 17:55N 51°55' E 004°13'0 0.0
2017-Oct-15 17:31N 51°55' E 004°13'0 0.0
2017-Oct-15 16:58N 51°55' E 004°13'0 0.0
2017-Oct-15 16:27N 51°55' E 004°13'0 0.0
2017-Oct-15 15:55N 51°55' E 004°13'0 0.0
2017-Oct-15 15:23N 51°55' E 004°13'0 0.0
2017-Oct-15 14:59N 51°55' E 004°13'0 0.0
2017-Oct-15 14:00N 51°55' E 004°13'0 0.0
2017-Oct-15 13:25N 51°55' E 004°13'0 0.0
2017-Oct-15 12:53N 51°55' E 004°13'0 0.0
2017-Oct-15 12:26N 51°55' E 004°13'0 0.0
2017-Oct-15 11:56N 51°55' E 004°13'0 0.0
2017-Oct-15 11:30N 51°55' E 004°13'0 0.0
2017-Oct-15 10:58N 51°55' E 004°13'0 0.0
2017-Oct-15 10:27N 51°55' E 004°13'0 0.0
2017-Oct-15 09:55N 51°55' E 004°13'0 0.0
2017-Oct-15 09:26N 51°55' E 004°13'0 0.0
2017-Oct-15 08:56N 51°55' E 004°13'0 0.0
2017-Oct-15 08:30N 51°55' E 004°13'0 0.0
2017-Oct-15 07:59N 51°55' E 004°13'0 0.0
2017-Oct-15 07:28N 51°55' E 004°13'0 0.0
2017-Oct-15 06:57N 51°55' E 004°13'0 0.0
2017-Oct-15 06:23N 51°55' E 004°13'0 0.0
2017-Oct-15 05:56N 51°55' E 004°13'0 0.0
2017-Oct-15 05:29N 51°55' E 004°13'0 0.0
2017-Oct-15 04:57N 51°55' E 004°13'0 0.0
2017-Oct-15 04:27N 51°55' E 004°13'0 0.0
2017-Oct-15 03:55N 51°55' E 004°13'0 0.0
2017-Oct-15 03:29N 51°55' E 004°13'0 0.0
2017-Oct-15 02:57N 51°55' E 004°13'0 0.0
2017-Oct-15 02:28N 51°55' E 004°13'0 0.0
2017-Oct-15 01:56N 51°55' E 004°13'0 0.0
2017-Oct-15 01:24N 51°55' E 004°13'0 0.0
2017-Oct-15 00:54N 51°55' E 004°13'0 0.0
2017-Oct-15 00:23N 51°55' E 004°13'0 0.0
2017-Oct-14 23:59N 51°55' E 004°13'0 0.0
2017-Oct-14 23:24N 51°55' E 004°13'0 0.0
2017-Oct-14 22:57N 51°55' E 004°13'0 0.0
2017-Oct-14 22:28N 51°55' E 004°13'0 0.0
2017-Oct-14 21:56N 51°55' E 004°13'0 0.0
2017-Oct-14 21:24N 51°55' E 004°13'0 0.0
2017-Oct-14 21:00N 51°55' E 004°13'  

Dump ship's entire track history